Mt Champion Express — A8QN4 — position and weather

sailwx.info

Track history (hours):
 
Tides and Currents Weather Stations Pressure Air Temp Water Temp Dewpoint Dewpoint Depression Visibility Wind Speed Wind Dir Waves Ship Positions

Mt Champion Express

Last reported at 2017-Mar-15 05:09 UTC. Time now 2017-Mar-28 23:37 UTC.
Position N 31°02' E 122°17'.
Warning: this ship's position is 13 days out of date.

Length 192 m; draft 7 m.

Type: Tanker. MMSI: 636013968.

Date/timePositionNaut miles runAvg speedWind from/ knotsBaromVisibWave heightAir tempDewpointWater temp
2017-Mar-15 05:09N 31°02' E 122°17'5 8.5
2017-Mar-15 04:33N 31°03' E 122°11'1010.2
2017-Mar-15 03:34N 31°05' E 121°60'6 6.1
2017-Mar-15 02:33N 31°09' E 121°54'1212.4
2017-Mar-15 01:33N 31°18' E 121°44'1211.8
2017-Mar-15 00:32N 31°24' E 121°32'1010.4
2017-Mar-14 23:33N 31°31' E 121°23'3 2.9
2017-Mar-14 22:29N 31°34' E 121°21'0 0.0
2017-Mar-14 21:32N 31°34' E 121°21'0 0.2
2017-Mar-14 20:32N 31°34' E 121°21'0 0.1
2017-Mar-14 19:29N 31°34' E 121°21'0 0.0
2017-Mar-14 18:32N 31°34' E 121°21'0 0.1
2017-Mar-14 17:34N 31°34' E 121°21'4 4.0
2017-Mar-14 16:33N 31°36' E 121°17'1413.7
2017-Mar-14 15:34N 31°45' E 121°05'1312.5
2017-Mar-14 14:33N 31°53' E 120°53'1111.2
2017-Mar-14 13:33N 32°00' E 120°43'1313.0
2017-Mar-14 12:33N 32°02' E 120°28'4 3.5
2017-Mar-14 11:32N 31°59' E 120°27'0 0.0
2017-Mar-14 10:32N 31°59' E 120°27'0 0.0
2017-Mar-14 09:11N 31°59' E 120°27'0 0.0
2017-Mar-14 05:26N 31°59' E 120°27'0 0.0
2017-Mar-14 04:32N 31°59' E 120°27'0 0.0
2017-Mar-14 03:26N 31°59' E 120°27'0 0.0
2017-Mar-14 02:29N 31°59' E 120°27'0 0.0
2017-Mar-14 01:26N 31°59' E 120°27'0 0.0
2017-Mar-14 00:32N 31°59' E 120°27'0 0.0
2017-Mar-13 23:29N 31°59' E 120°27'0 0.0
2017-Mar-13 22:26N 31°59' E 120°27'0 0.0
2017-Mar-13 21:32N 31°59' E 120°27'0 0.0
2017-Mar-13 20:26N 31°59' E 120°27'0 0.0
2017-Mar-13 19:32N 31°59' E 120°27'0 0.0
2017-Mar-13 18:29N 31°59' E 120°27'0 0.0
2017-Mar-13 17:17N 31°59' E 120°27'0 0.0
2017-Mar-13 16:23N 31°59' E 120°27'0 0.0
2017-Mar-13 15:32N 31°59' E 120°27'0 0.0
2017-Mar-13 14:26N 31°59' E 120°27'0 0.0
2017-Mar-13 13:23N 31°59' E 120°27'0 0.0
2017-Mar-13 12:32N 31°59' E 120°27'0 0.0
2017-Mar-13 11:31N 31°59' E 120°27'0 0.0
2017-Mar-13 10:31N 31°59' E 120°27'0 0.0
2017-Mar-13 07:31N 31°59' E 120°27'4 3.8
2017-Mar-13 06:31N 31°58' E 120°22'  
2017-Mar-11 02:19N 31°59' E 120°20'7 9.2
2017-Mar-11 01:33N 32°02' E 120°28'27 8.4
2017-Mar-10 22:18N 31°48' E 120°55'8 9.9
2017-Mar-10 21:31N 31°46' E 121°04'1010.4
2017-Mar-10 20:33N 31°39' E 121°13'8 8.0
2017-Mar-10 19:31N 31°34' E 121°20'0 0.2
2017-Mar-10 18:31N 31°34' E 121°20'0 0.1
2017-Mar-10 17:31N 31°34' E 121°20'0 0.0
2017-Mar-10 16:31N 31°34' E 121°20'0 0.0
2017-Mar-10 15:31N 31°34' E 121°20'0 0.0
2017-Mar-10 14:28N 31°34' E 121°20'0 0.2
2017-Mar-10 13:28N 31°34' E 121°20'0 0.1
2017-Mar-10 12:28N 31°34' E 121°20'0 0.0
2017-Mar-10 11:28N 31°34' E 121°20'0 0.0
2017-Mar-10 10:28N 31°34' E 121°20'0 0.0
2017-Mar-10 09:31N 31°34' E 121°20'0 0.0
2017-Mar-10 08:25N 31°34' E 121°20'1 1.5
2017-Mar-10 07:33N 31°33' E 121°21'1010.2
2017-Mar-10 06:34N 31°26' E 121°30'7 7.4
2017-Mar-10 05:33N 31°22' E 121°38'1010.2
2017-Mar-10 04:34N 31°18' E 121°48'10 9.9
2017-Mar-10 03:34N 31°15' E 121°59'1111.2
2017-Mar-10 02:33N 31°10' E 122°11'1212.1
2017-Mar-10 01:33N 31°06' E 122°25'8 7.7
2017-Mar-10 00:32N 31°07' E 122°34'9 9.2
2017-Mar-09 23:32N 31°07' E 122°44'10 9.6
2017-Mar-09 22:31N 31°15' E 122°51'1010.3
2017-Mar-09 21:33N 31°24' E 122°56'1110.9
2017-Mar-09 20:34N 31°34' E 123°02'2611.1
2017-Mar-09 18:10N 31°58' E 123°14'  
Track history (hours):
 
Tides and Currents Weather Stations Pressure Air Temp Water Temp Dewpoint Dewpoint Depression Visibility Wind Speed Wind Dir Waves Ship Positions

Mt Champion Express

Last reported at 2017-Mar-15 05:09 UTC. Time now 2017-Mar-28 23:37 UTC.
Position N 31°02' E 122°17'.
Warning: this ship's position is 13 days out of date.

Length 192 m; draft 7 m.

Type: Tanker. MMSI: 636013968.

Date/timePositionNaut miles runAvg speedWind from/ knotsBaromVisibWave heightAir tempDewpointWater temp
2017-Mar-15 05:09N 31°02' E 122°17'5 8.5
2017-Mar-15 04:33N 31°03' E 122°11'1010.2
2017-Mar-15 03:34N 31°05' E 121°60'6 6.1
2017-Mar-15 02:33N 31°09' E 121°54'1212.4
2017-Mar-15 01:33N 31°18' E 121°44'1211.8
2017-Mar-15 00:32N 31°24' E 121°32'1010.4
2017-Mar-14 23:33N 31°31' E 121°23'3 2.9
2017-Mar-14 22:29N 31°34' E 121°21'0 0.0
2017-Mar-14 21:32N 31°34' E 121°21'0 0.2
2017-Mar-14 20:32N 31°34' E 121°21'0 0.1
2017-Mar-14 19:29N 31°34' E 121°21'0 0.0
2017-Mar-14 18:32N 31°34' E 121°21'0 0.1
2017-Mar-14 17:34N 31°34' E 121°21'4 4.0
2017-Mar-14 16:33N 31°36' E 121°17'1413.7
2017-Mar-14 15:34N 31°45' E 121°05'1312.5
2017-Mar-14 14:33N 31°53' E 120°53'1111.2
2017-Mar-14 13:33N 32°00' E 120°43'1313.0
2017-Mar-14 12:33N 32°02' E 120°28'4 3.5
2017-Mar-14 11:32N 31°59' E 120°27'0 0.0
2017-Mar-14 10:32N 31°59' E 120°27'0 0.0
2017-Mar-14 09:11N 31°59' E 120°27'0 0.0
2017-Mar-14 05:26N 31°59' E 120°27'0 0.0
2017-Mar-14 04:32N 31°59' E 120°27'0 0.0
2017-Mar-14 03:26N 31°59' E 120°27'0 0.0
2017-Mar-14 02:29N 31°59' E 120°27'0 0.0
2017-Mar-14 01:26N 31°59' E 120°27'0 0.0
2017-Mar-14 00:32N 31°59' E 120°27'0 0.0
2017-Mar-13 23:29N 31°59' E 120°27'0 0.0
2017-Mar-13 22:26N 31°59' E 120°27'0 0.0
2017-Mar-13 21:32N 31°59' E 120°27'0 0.0
2017-Mar-13 20:26N 31°59' E 120°27'0 0.0
2017-Mar-13 19:32N 31°59' E 120°27'0 0.0
2017-Mar-13 18:29N 31°59' E 120°27'0 0.0
2017-Mar-13 17:17N 31°59' E 120°27'0 0.0
2017-Mar-13 16:23N 31°59' E 120°27'0 0.0
2017-Mar-13 15:32N 31°59' E 120°27'0 0.0
2017-Mar-13 14:26N 31°59' E 120°27'0 0.0
2017-Mar-13 13:23N 31°59' E 120°27'0 0.0
2017-Mar-13 12:32N 31°59' E 120°27'0 0.0
2017-Mar-13 11:31N 31°59' E 120°27'0 0.0
2017-Mar-13 10:31N 31°59' E 120°27'0 0.0
2017-Mar-13 07:31N 31°59' E 120°27'4 3.8
2017-Mar-13 06:31N 31°58' E 120°22'  
2017-Mar-11 02:19N 31°59' E 120°20'7 9.2
2017-Mar-11 01:33N 32°02' E 120°28'27 8.4
2017-Mar-10 22:18N 31°48' E 120°55'8 9.9
2017-Mar-10 21:31N 31°46' E 121°04'1010.4
2017-Mar-10 20:33N 31°39' E 121°13'8 8.0
2017-Mar-10 19:31N 31°34' E 121°20'0 0.2
2017-Mar-10 18:31N 31°34' E 121°20'0 0.1
2017-Mar-10 17:31N 31°34' E 121°20'0 0.0
2017-Mar-10 16:31N 31°34' E 121°20'0 0.0
2017-Mar-10 15:31N 31°34' E 121°20'0 0.0
2017-Mar-10 14:28N 31°34' E 121°20'0 0.2
2017-Mar-10 13:28N 31°34' E 121°20'0 0.1
2017-Mar-10 12:28N 31°34' E 121°20'0 0.0
2017-Mar-10 11:28N 31°34' E 121°20'0 0.0
2017-Mar-10 10:28N 31°34' E 121°20'0 0.0
2017-Mar-10 09:31N 31°34' E 121°20'0 0.0
2017-Mar-10 08:25N 31°34' E 121°20'1 1.5
2017-Mar-10 07:33N 31°33' E 121°21'1010.2
2017-Mar-10 06:34N 31°26' E 121°30'7 7.4
2017-Mar-10 05:33N 31°22' E 121°38'1010.2
2017-Mar-10 04:34N 31°18' E 121°48'10 9.9
2017-Mar-10 03:34N 31°15' E 121°59'1111.2
2017-Mar-10 02:33N 31°10' E 122°11'1212.1
2017-Mar-10 01:33N 31°06' E 122°25'8 7.7
2017-Mar-10 00:32N 31°07' E 122°34'9 9.2
2017-Mar-09 23:32N 31°07' E 122°44'10 9.6
2017-Mar-09 22:31N 31°15' E 122°51'1010.3
2017-Mar-09 21:33N 31°24' E 122°56'1110.9
2017-Mar-09 20:34N 31°34' E 123°02'2611.1
2017-Mar-09 18:10N 31°58' E 123°14'  

Dump ship's entire track history